createdAt,value
2022-12-31T00:02:17.570Z,12.15
2022-12-31T00:04:44.400Z,12.19
2022-12-31T00:07:11.101Z,12.21
2022-12-31T00:09:37.618Z,12.23
2022-12-31T00:12:04.551Z,12.25
2022-12-31T00:14:31.173Z,12.18
2022-12-31T00:16:57.713Z,12.24
2022-12-31T00:19:24.298Z,12.27
2022-12-31T00:21:50.846Z,12.15
2022-12-31T00:24:17.297Z,12.14
2022-12-31T00:26:43.798Z,12.15
2022-12-31T00:29:10.452Z,12.22
2022-12-31T00:31:38.331Z,12.18
2022-12-31T00:34:05.995Z,12.20
2022-12-31T00:36:36.330Z,12.14
2022-12-31T00:39:05.011Z,12.17
2022-12-31T00:41:31.997Z,12.15
2022-12-31T00:43:58.983Z,12.23
2022-12-31T00:46:26.059Z,12.22
2022-12-31T00:48:52.898Z,12.17
2022-12-31T00:51:23.688Z,12.18
2022-12-31T00:53:50.424Z,12.20
2022-12-31T00:56:19.669Z,12.20
2022-12-31T00:58:47.137Z,12.21
2022-12-31T01:01:19.672Z,12.29
2022-12-31T01:03:48.105Z,12.31
2022-12-31T01:06:15.157Z,12.36
2022-12-31T01:08:41.601Z,12.35
2022-12-31T01:11:22.248Z,12.43
2022-12-31T01:13:59.480Z,12.39
2022-12-31T01:16:37.710Z,12.44
2022-12-31T01:19:07.843Z,12.51
2022-12-31T01:21:35.207Z,12.54
2022-12-31T01:24:02.000Z,12.48
2022-12-31T01:26:28.958Z,12.51
2022-12-31T01:28:55.458Z,12.42
2022-12-31T01:31:23.549Z,12.53
2022-12-31T01:33:51.312Z,12.53
2022-12-31T01:36:25.509Z,12.60
2022-12-31T01:38:52.865Z,12.56
2022-12-31T01:41:25.690Z,12.60
2022-12-31T01:43:58.532Z,12.60
2022-12-31T01:46:42.539Z,12.66
2022-12-31T01:49:24.084Z,12.70
2022-12-31T01:51:56.337Z,12.83
2022-12-31T01:54:25.640Z,12.80
2022-12-31T01:56:53.677Z,12.79
2022-12-31T01:59:24.100Z,12.74
2022-12-31T02:01:54.227Z,12.70
2022-12-31T02:04:23.910Z,12.71
2022-12-31T02:07:03.237Z,12.75
2022-12-31T02:09:31.226Z,12.70
2022-12-31T02:11:57.617Z,12.66
2022-12-31T02:14:33.810Z,12.67
2022-12-31T02:17:15.471Z,12.72
2022-12-31T02:20:06.865Z,12.71
2022-12-31T02:22:42.436Z,12.74
2022-12-31T02:25:21.785Z,12.68
2022-12-31T02:28:08.978Z,12.56
2022-12-31T02:30:37.521Z,12.71
2022-12-31T02:33:17.373Z,12.67
2022-12-31T02:35:52.404Z,12.72
2022-12-31T02:38:31.096Z,12.75
2022-12-31T02:40:58.174Z,12.67
2022-12-31T02:43:25.288Z,12.62
2022-12-31T02:46:01.129Z,12.59
2022-12-31T02:49:00.666Z,12.68
2022-12-31T02:51:42.371Z,12.67
2022-12-31T02:54:25.746Z,12.68
2022-12-31T02:57:05.405Z,12.78
2022-12-31T02:59:53.105Z,12.85
2022-12-31T03:02:23.069Z,12.73
2022-12-31T03:04:55.413Z,12.80
2022-12-31T03:07:27.754Z,12.84
2022-12-31T03:09:54.730Z,12.87
2022-12-31T03:12:47.995Z,12.81
2022-12-31T03:15:29.388Z,12.85
2022-12-31T03:18:12.472Z,12.85
2022-12-31T03:21:03.387Z,12.94
2022-12-31T03:23:36.494Z,13.02
2022-12-31T03:26:10.816Z,12.97
2022-12-31T03:28:40.157Z,12.97
2022-12-31T03:31:07.777Z,12.95
2022-12-31T03:33:37.141Z,13.05
2022-12-31T03:36:09.591Z,13.04
2022-12-31T03:38:36.250Z,13.03
2022-12-31T03:41:03.063Z,13.04
2022-12-31T03:43:29.495Z,13.06
2022-12-31T03:45:58.574Z,13.09
2022-12-31T03:48:25.076Z,13.03
2022-12-31T03:50:52.019Z,13.00
2022-12-31T03:53:18.789Z,13.05
2022-12-31T03:55:45.261Z,13.05
2022-12-31T03:58:11.738Z,13.06
2022-12-31T04:00:38.486Z,13.01
2022-12-31T04:03:05.101Z,12.99
2022-12-31T04:05:32.371Z,12.98
2022-12-31T04:07:58.926Z,13.01
2022-12-31T04:10:25.322Z,12.96
2022-12-31T04:12:51.898Z,12.98
2022-12-31T04:15:20.658Z,12.97
2022-12-31T04:17:48.304Z,12.97
2022-12-31T04:20:16.112Z,12.98
2022-12-31T04:22:42.670Z,13.00
2022-12-31T04:25:12.888Z,13.11
2022-12-31T04:27:40.932Z,13.18
2022-12-31T04:30:08.113Z,13.22
2022-12-31T04:32:34.485Z,13.26
2022-12-31T04:35:00.965Z,13.26
2022-12-31T04:37:27.555Z,13.25
2022-12-31T04:39:54.058Z,13.24
2022-12-31T04:42:20.491Z,13.17
2022-12-31T04:44:46.964Z,13.14
2022-12-31T04:47:15.265Z,13.09
2022-12-31T04:49:43.793Z,13.15
2022-12-31T04:52:10.376Z,13.18
2022-12-31T04:54:36.825Z,13.21
2022-12-31T04:57:03.355Z,13.31
2022-12-31T04:59:29.795Z,13.30
2022-12-31T05:01:56.511Z,13.36
2022-12-31T05:04:23.094Z,13.37
2022-12-31T05:06:49.465Z,13.41
2022-12-31T05:09:15.959Z,13.37
2022-12-31T05:11:42.400Z,13.37
2022-12-31T05:14:08.851Z,13.34
2022-12-31T05:16:35.345Z,13.31
2022-12-31T05:19:02.021Z,13.20
2022-12-31T05:21:28.739Z,13.22
2022-12-31T05:23:55.277Z,13.05
2022-12-31T05:26:21.699Z,13.16
2022-12-31T05:28:48.107Z,13.23
2022-12-31T05:31:14.553Z,13.30
2022-12-31T05:33:41.005Z,13.29
2022-12-31T05:36:07.720Z,13.25
2022-12-31T05:38:34.146Z,13.28
2022-12-31T05:41:06.088Z,13.30
2022-12-31T05:43:32.912Z,13.28
2022-12-31T05:46:04.303Z,13.24
2022-12-31T05:48:31.825Z,13.23
2022-12-31T05:50:58.505Z,13.27
2022-12-31T05:53:25.118Z,13.34
2022-12-31T05:55:51.531Z,13.32
2022-12-31T05:58:18.390Z,13.40
2022-12-31T06:00:45.953Z,13.41
2022-12-31T06:03:12.478Z,13.47
2022-12-31T06:05:40.995Z,13.47
2022-12-31T06:08:07.632Z,13.58
2022-12-31T06:10:34.004Z,13.61
2022-12-31T06:13:00.420Z,13.60
2022-12-31T06:15:27.105Z,13.65
2022-12-31T06:17:53.503Z,13.70
2022-12-31T06:20:19.994Z,13.73
2022-12-31T06:22:46.489Z,13.76
2022-12-31T06:25:13.121Z,13.82
2022-12-31T06:27:39.514Z,13.73
2022-12-31T06:30:07.197Z,13.77
2022-12-31T06:32:34.979Z,13.80
2022-12-31T06:35:01.535Z,13.80
2022-12-31T06:37:28.145Z,13.89
2022-12-31T06:39:54.556Z,13.93
2022-12-31T06:42:21.227Z,13.94
2022-12-31T06:44:47.599Z,14.00
2022-12-31T06:47:14.056Z,14.10
2022-12-31T06:49:40.803Z,14.05
2022-12-31T06:52:07.300Z,14.14
2022-12-31T06:54:33.986Z,14.15
2022-12-31T06:57:00.668Z,14.17
2022-12-31T06:59:29.501Z,14.19
2022-12-31T07:02:09.499Z,14.18
2022-12-31T07:04:55.536Z,14.11
2022-12-31T07:07:38.332Z,14.11
2022-12-31T07:10:30.677Z,14.19
2022-12-31T07:12:57.019Z,14.13
2022-12-31T07:15:51.161Z,14.20
2022-12-31T07:18:31.134Z,14.21
2022-12-31T07:20:58.328Z,14.18
2022-12-31T07:23:25.386Z,14.16
2022-12-31T07:26:02.054Z,14.22
2022-12-31T07:28:39.350Z,14.25
2022-12-31T07:31:22.084Z,14.27
2022-12-31T07:34:00.838Z,14.27
2022-12-31T07:36:57.864Z,14.27
2022-12-31T07:39:47.822Z,14.22
2022-12-31T07:42:16.914Z,14.15
2022-12-31T07:45:10.838Z,14.16
2022-12-31T07:47:37.559Z,14.15
2022-12-31T07:50:04.436Z,14.20
2022-12-31T07:52:31.289Z,14.22
2022-12-31T07:54:57.799Z,14.22
2022-12-31T07:57:32.201Z,14.30
2022-12-31T08:00:06.092Z,14.23
2022-12-31T08:03:09.758Z,14.28
2022-12-31T08:05:44.070Z,14.31
2022-12-31T08:08:38.171Z,14.31
2022-12-31T08:11:46.347Z,14.36
2022-12-31T08:14:14.796Z,14.36
2022-12-31T08:16:41.856Z,14.41
2022-12-31T08:19:22.517Z,14.35
2022-12-31T08:21:53.500Z,14.37
2022-12-31T08:24:30.474Z,14.33
2022-12-31T08:26:56.939Z,14.49
2022-12-31T08:29:55.242Z,14.37
2022-12-31T08:32:35.673Z,14.40
2022-12-31T08:35:37.599Z,14.38
2022-12-31T08:38:37.653Z,14.44
2022-12-31T08:41:18.023Z,14.41
2022-12-31T08:44:07.647Z,14.33
2022-12-31T08:46:55.656Z,14.30
2022-12-31T08:49:22.237Z,14.32
2022-12-31T08:51:49.128Z,14.36
2022-12-31T08:54:15.806Z,14.35
2022-12-31T08:56:50.772Z,14.38
2022-12-31T08:59:32.531Z,14.34
2022-12-31T09:02:08.251Z,14.38
2022-12-31T09:05:09.819Z,14.35
2022-12-31T09:07:39.340Z,14.32
2022-12-31T09:10:06.079Z,14.29
2022-12-31T09:12:47.279Z,14.40
2022-12-31T09:15:29.769Z,14.36
2022-12-31T09:17:56.435Z,14.31
2022-12-31T09:20:23.146Z,14.36
2022-12-31T09:22:50.464Z,14.38
2022-12-31T09:25:19.135Z,14.34
2022-12-31T09:28:26.205Z,14.31
2022-12-31T09:31:08.549Z,14.35
2022-12-31T09:33:55.630Z,14.33
2022-12-31T09:36:39.315Z,14.32
2022-12-31T09:39:16.592Z,14.42
2022-12-31T09:41:42.946Z,14.43
2022-12-31T09:44:32.874Z,14.53
2022-12-31T09:47:24.226Z,14.56
2022-12-31T09:50:20.061Z,14.81
2022-12-31T09:53:23.699Z,14.71
2022-12-31T09:56:02.791Z,14.85
2022-12-31T09:58:44.000Z,14.90
2022-12-31T10:01:34.809Z,14.92
2022-12-31T10:04:19.907Z,15.24
2022-12-31T10:07:18.453Z,15.20
2022-12-31T10:10:06.564Z,15.38
2022-12-31T10:12:42.373Z,15.38
2022-12-31T10:15:18.043Z,15.32
2022-12-31T10:18:06.262Z,15.58
2022-12-31T10:21:06.482Z,15.93
2022-12-31T10:24:07.061Z,15.91
2022-12-31T10:26:46.201Z,15.92
2022-12-31T10:29:44.196Z,16.04
2022-12-31T10:32:18.814Z,16.47
2022-12-31T10:35:02.293Z,15.99
2022-12-31T10:37:46.868Z,16.50
2022-12-31T10:40:55.352Z,16.12
2022-12-31T10:43:43.578Z,15.87
2022-12-31T10:46:16.380Z,15.67
2022-12-31T10:49:17.151Z,15.88
2022-12-31T10:52:05.383Z,15.98
2022-12-31T10:54:42.028Z,15.78
2022-12-31T10:57:41.614Z,15.82
2022-12-31T11:00:12.567Z,16.13
2022-12-31T11:03:18.332Z,15.69
2022-12-31T11:06:08.691Z,15.28
2022-12-31T11:09:18.213Z,15.42
2022-12-31T11:12:03.154Z,15.44
2022-12-31T11:14:48.049Z,15.13
2022-12-31T11:17:41.757Z,15.01
2022-12-31T11:20:34.061Z,14.88
2022-12-31T11:23:28.290Z,14.91
2022-12-31T11:26:04.334Z,15.15
2022-12-31T11:28:42.634Z,15.02
2022-12-31T11:31:24.324Z,14.95
2022-12-31T11:34:25.554Z,14.84
2022-12-31T11:37:16.943Z,14.83
2022-12-31T11:39:59.614Z,15.02
2022-12-31T11:42:44.311Z,15.39
2022-12-31T11:45:10.702Z,15.55
2022-12-31T11:48:29.574Z,15.30
2022-12-31T11:51:00.228Z,15.33
2022-12-31T11:53:36.250Z,15.13
2022-12-31T11:56:18.880Z,15.09
2022-12-31T11:58:51.741Z,15.10
2022-12-31T12:01:33.530Z,15.16
2022-12-31T12:04:01.059Z,15.33
2022-12-31T12:06:30.208Z,15.22
2022-12-31T12:09:03.466Z,15.44
2022-12-31T12:11:34.223Z,15.36
2022-12-31T12:14:00.812Z,15.40
2022-12-31T12:16:28.383Z,15.59
2022-12-31T12:19:03.183Z,15.66
2022-12-31T12:21:30.060Z,15.50
2022-12-31T12:23:57.728Z,15.75
2022-12-31T12:26:39.292Z,15.74
2022-12-31T12:29:11.331Z,15.68
2022-12-31T12:31:38.267Z,16.00
2022-12-31T12:34:06.167Z,16.06
2022-12-31T12:36:33.380Z,15.69
2022-12-31T12:39:01.814Z,15.94
2022-12-31T12:41:28.291Z,16.18
2022-12-31T12:44:04.145Z,16.46
2022-12-31T12:46:35.810Z,16.04
2022-12-31T12:49:03.759Z,16.26
2022-12-31T12:52:09.220Z,16.47
2022-12-31T12:54:42.544Z,16.43
2022-12-31T12:57:39.098Z,16.27
2022-12-31T13:00:08.308Z,16.05
2022-12-31T13:02:53.108Z,16.29
2022-12-31T13:05:43.836Z,16.27
2022-12-31T13:08:32.285Z,16.32
2022-12-31T13:11:18.210Z,16.59
2022-12-31T13:14:02.419Z,16.60
2022-12-31T13:16:34.594Z,16.52
2022-12-31T13:19:28.183Z,16.13
2022-12-31T13:22:17.804Z,16.30
2022-12-31T13:24:52.488Z,16.50
2022-12-31T13:27:26.589Z,16.62
2022-12-31T13:29:55.150Z,16.37
2022-12-31T13:32:38.083Z,16.45
2022-12-31T13:35:21.540Z,16.20
2022-12-31T13:37:49.808Z,16.00
2022-12-31T13:40:48.127Z,16.14
2022-12-31T13:43:48.871Z,16.30
2022-12-31T13:46:32.137Z,16.17
2022-12-31T13:49:03.313Z,16.06
2022-12-31T13:51:41.392Z,15.85
2022-12-31T13:54:29.637Z,15.87
2022-12-31T13:57:02.425Z,16.11
2022-12-31T13:59:34.311Z,15.70
2022-12-31T14:02:24.490Z,15.45
2022-12-31T14:04:56.408Z,15.48
2022-12-31T14:07:35.367Z,15.27
2022-12-31T14:10:12.695Z,15.30
2022-12-31T14:12:45.314Z,15.20
2022-12-31T14:15:33.281Z,15.00
2022-12-31T14:18:14.255Z,15.01
2022-12-31T14:20:52.330Z,14.92
2022-12-31T14:23:40.090Z,14.95
2022-12-31T14:26:22.664Z,15.04
2022-12-31T14:29:08.717Z,15.08
2022-12-31T14:31:51.798Z,15.00
2022-12-31T14:34:21.204Z,14.86
2022-12-31T14:36:57.481Z,14.80
2022-12-31T14:39:38.754Z,14.78
2022-12-31T14:42:05.235Z,14.75
2022-12-31T14:45:04.751Z,14.79
2022-12-31T14:47:57.856Z,14.73
2022-12-31T14:50:29.606Z,14.65
2022-12-31T14:53:22.467Z,14.61
2022-12-31T14:55:58.214Z,14.65
2022-12-31T14:58:30.843Z,14.63
2022-12-31T15:00:58.856Z,14.69
2022-12-31T15:03:31.324Z,14.56
2022-12-31T15:06:08.733Z,14.59
2022-12-31T15:09:08.910Z,14.63
2022-12-31T15:11:41.927Z,14.58
2022-12-31T15:14:37.571Z,14.52
2022-12-31T15:17:26.175Z,14.50
2022-12-31T15:20:01.866Z,14.54
2022-12-31T15:22:35.597Z,14.51
2022-12-31T15:25:02.768Z,14.51
2022-12-31T15:27:42.313Z,14.50
2022-12-31T15:30:28.755Z,14.46
2022-12-31T15:32:58.999Z,14.49
2022-12-31T15:35:30.977Z,14.50
2022-12-31T15:38:19.363Z,14.49
2022-12-31T15:40:51.405Z,14.52
2022-12-31T15:43:31.338Z,14.53
2022-12-31T15:45:58.267Z,14.54
2022-12-31T15:48:31.253Z,14.56
2022-12-31T15:51:00.262Z,14.63
2022-12-31T15:53:28.932Z,14.69
2022-12-31T15:55:58.025Z,14.74
2022-12-31T15:58:29.808Z,14.77
2022-12-31T16:01:20.445Z,14.75
2022-12-31T16:03:57.684Z,14.71
2022-12-31T16:06:28.176Z,14.66
2022-12-31T16:08:55.620Z,14.69
2022-12-31T16:11:23.376Z,14.68
2022-12-31T16:13:53.573Z,14.71
2022-12-31T16:16:26.331Z,14.71
2022-12-31T16:18:53.181Z,14.65
2022-12-31T16:21:33.588Z,14.68
2022-12-31T16:24:26.219Z,14.73
2022-12-31T16:26:55.961Z,14.74
2022-12-31T16:29:24.042Z,14.69
2022-12-31T16:31:53.623Z,14.72
2022-12-31T16:34:25.442Z,14.70
2022-12-31T16:37:01.214Z,14.74
2022-12-31T16:39:38.673Z,14.80
2022-12-31T16:42:13.949Z,14.94
2022-12-31T16:44:41.019Z,14.91
2022-12-31T16:47:09.833Z,14.79
2022-12-31T16:49:39.252Z,14.87
2022-12-31T16:52:14.478Z,14.90
2022-12-31T16:54:46.819Z,14.89
2022-12-31T16:57:21.408Z,14.81
2022-12-31T16:59:52.559Z,14.71
2022-12-31T17:02:25.589Z,14.75
2022-12-31T17:04:56.268Z,14.69
2022-12-31T17:07:32.211Z,14.64
2022-12-31T17:10:08.701Z,14.67
2022-12-31T17:13:08.761Z,14.73
2022-12-31T17:15:40.019Z,14.64
2022-12-31T17:18:07.478Z,14.62
2022-12-31T17:20:34.521Z,14.59
2022-12-31T17:23:05.263Z,14.62
2022-12-31T17:25:34.033Z,14.59
2022-12-31T17:28:21.018Z,14.59
2022-12-31T17:30:47.804Z,14.58
2022-12-31T17:33:14.219Z,14.44
2022-12-31T17:35:42.921Z,14.44
2022-12-31T17:38:29.776Z,14.45
2022-12-31T17:41:14.547Z,14.47
2022-12-31T17:43:41.772Z,14.44
2022-12-31T17:46:14.012Z,14.52
2022-12-31T17:48:41.234Z,14.44
2022-12-31T17:51:08.031Z,14.37
2022-12-31T17:53:34.902Z,14.41
2022-12-31T17:56:04.137Z,14.39
2022-12-31T17:58:43.634Z,14.35
2022-12-31T18:01:12.222Z,14.35
2022-12-31T18:03:38.749Z,14.39
2022-12-31T18:06:05.476Z,14.36
2022-12-31T18:08:32.128Z,14.30
2022-12-31T18:10:58.674Z,14.35
2022-12-31T18:13:26.835Z,14.28
2022-12-31T18:15:53.855Z,14.27
2022-12-31T18:18:25.679Z,14.19
2022-12-31T18:21:04.875Z,14.24
2022-12-31T18:23:37.523Z,14.29
2022-12-31T18:26:04.259Z,14.31
2022-12-31T18:28:30.972Z,14.17
2022-12-31T18:30:57.463Z,14.19
2022-12-31T18:33:25.091Z,14.15
2022-12-31T18:36:09.624Z,14.13
2022-12-31T18:38:36.753Z,14.18
2022-12-31T18:41:04.168Z,14.17
2022-12-31T18:43:31.064Z,14.12
2022-12-31T18:45:57.823Z,14.06
2022-12-31T18:48:24.558Z,14.09
2022-12-31T18:50:51.267Z,14.09
2022-12-31T18:53:21.089Z,14.13
2022-12-31T18:55:56.181Z,14.04
2022-12-31T18:58:23.333Z,13.98
2022-12-31T19:00:50.732Z,13.94
2022-12-31T19:03:19.981Z,13.94
2022-12-31T19:05:49.743Z,13.99
2022-12-31T19:08:21.179Z,14.04
2022-12-31T19:10:48.797Z,14.10
2022-12-31T19:13:17.613Z,14.05
2022-12-31T19:15:52.241Z,14.08
2022-12-31T19:18:19.088Z,14.14
2022-12-31T19:20:45.937Z,14.19
2022-12-31T19:23:18.062Z,14.19
2022-12-31T19:25:46.520Z,14.19
2022-12-31T19:28:23.087Z,14.24
2022-12-31T19:30:49.788Z,14.22
2022-12-31T19:33:17.287Z,14.34
2022-12-31T19:35:44.766Z,14.28
2022-12-31T19:38:20.440Z,14.38
2022-12-31T19:40:47.816Z,14.42
2022-12-31T19:43:16.012Z,14.44
2022-12-31T19:45:43.835Z,14.44
2022-12-31T19:48:12.527Z,14.41
2022-12-31T19:50:42.775Z,14.39
2022-12-31T19:53:12.654Z,14.42
2022-12-31T19:55:39.871Z,14.44
2022-12-31T19:58:07.246Z,14.53
2022-12-31T20:00:34.255Z,14.60
2022-12-31T20:03:01.434Z,14.61
2022-12-31T20:05:28.144Z,14.58
2022-12-31T20:07:54.599Z,14.58
2022-12-31T20:10:21.448Z,14.66
2022-12-31T20:12:47.974Z,14.60
2022-12-31T20:15:14.470Z,14.62
2022-12-31T20:17:40.901Z,14.62
2022-12-31T20:20:07.862Z,14.59
2022-12-31T20:22:34.276Z,14.63
2022-12-31T20:25:00.833Z,14.56
2022-12-31T20:27:27.467Z,14.66
2022-12-31T20:29:53.861Z,14.57
2022-12-31T20:32:20.432Z,14.59
2022-12-31T20:34:47.073Z,14.64
2022-12-31T20:37:13.538Z,14.64
2022-12-31T20:39:39.981Z,14.70
2022-12-31T20:42:06.880Z,14.68
2022-12-31T20:44:33.335Z,14.70
2022-12-31T20:46:59.716Z,14.60
2022-12-31T20:49:52.031Z,14.63
2022-12-31T20:52:13.191Z,14.66
2022-12-31T20:54:39.622Z,14.58
2022-12-31T20:57:06.034Z,14.58
2022-12-31T20:59:32.699Z,14.53
2022-12-31T21:04:46.931Z,14.57
2022-12-31T21:07:13.520Z,14.60
2022-12-31T21:09:39.952Z,14.58
2022-12-31T21:12:24.930Z,14.60
2022-12-31T21:14:51.475Z,14.68
2022-12-31T21:17:18.089Z,14.81
2022-12-31T21:19:44.578Z,14.71
2022-12-31T21:22:11.505Z,14.70
2022-12-31T21:24:39.139Z,14.65
2022-12-31T21:27:06.435Z,14.64
2022-12-31T21:29:35.538Z,14.76
2022-12-31T21:32:03.729Z,14.72
2022-12-31T21:34:30.225Z,14.65
2022-12-31T21:36:56.744Z,14.66
2022-12-31T21:39:23.327Z,14.58
2022-12-31T21:41:52.627Z,14.56
2022-12-31T21:44:21.322Z,14.51
2022-12-31T21:47:45.475Z,14.57
2022-12-31T21:50:10.223Z,14.50
2022-12-31T21:52:36.629Z,14.42
2022-12-31T21:55:23.339Z,14.49
2022-12-31T22:00:55.902Z,14.36
2022-12-31T22:03:27.600Z,14.34
2022-12-31T22:06:00.325Z,14.20
2022-12-31T22:08:28.170Z,14.13
2022-12-31T22:10:55.061Z,14.12
2022-12-31T22:13:22.165Z,13.97
2022-12-31T22:15:58.723Z,14.08
2022-12-31T22:18:28.992Z,14.07
2022-12-31T22:21:17.784Z,13.99
2022-12-31T22:23:46.565Z,13.96
2022-12-31T22:26:15.147Z,13.94
2022-12-31T22:28:43.348Z,13.91
2022-12-31T22:31:13.936Z,13.91
2022-12-31T22:33:40.635Z,13.89
2022-12-31T22:36:10.809Z,13.87
2022-12-31T22:38:37.473Z,13.85
2022-12-31T22:41:06.394Z,13.84
2022-12-31T22:43:37.436Z,13.74
2022-12-31T22:46:30.507Z,13.82
2022-12-31T22:48:59.176Z,13.78
2022-12-31T22:51:30.521Z,13.73
2022-12-31T22:54:12.552Z,13.66
2022-12-31T22:56:38.986Z,13.70
2022-12-31T22:59:05.646Z,13.75
2022-12-31T23:01:32.461Z,13.74
2022-12-31T23:03:59.241Z,13.69
2022-12-31T23:06:26.173Z,13.67
2022-12-31T23:09:11.119Z,13.63
2022-12-31T23:11:40.822Z,13.59
2022-12-31T23:14:26.652Z,13.56
2022-12-31T23:17:30.411Z,13.50
2022-12-31T23:20:18.097Z,13.47
2022-12-31T23:23:03.791Z,13.39
2022-12-31T23:25:41.694Z,13.37
2022-12-31T23:28:11.429Z,13.42
2022-12-31T23:30:42.266Z,13.44
2022-12-31T23:33:13.967Z,13.44
2022-12-31T23:35:40.418Z,13.46
2022-12-31T23:38:06.902Z,13.33
2022-12-31T23:40:36.275Z,13.34
2022-12-31T23:43:06.069Z,13.33
2022-12-31T23:45:33.933Z,13.32
2022-12-31T23:48:00.667Z,13.28
2022-12-31T23:50:27.257Z,13.31
2022-12-31T23:52:54.179Z,13.30
2022-12-31T23:55:21.270Z,13.25
2022-12-31T23:57:47.743Z,13.24
